Time;durP1;ratioP1;P1;durP2;ratioP2;P2;SDS_P1;SDS_P2;PMS_P1;PMS_P2;Temp;Humidity;BMP_temperature;BMP_pressure;BME280_temperature;BME280_humidity;BME280_pressure;Samples;Min_cycle;Max_cycle;Signal;HPM_P1;HPM_P2
2023/07/06 00:02:21;;;;;;;;;;;11.80;99.90;;;;;;4952339;28;19934;-86
2023/07/06 00:04:46;;;;;;;;;;;11.80;99.90;;;;;;4953282;28;19929;-86
2023/07/06 00:07:18;;;;;;;;;;;11.80;99.90;;;;;;4952915;28;20291;-87
2023/07/06 00:09:44;;;;;;;;;;;11.80;99.90;;;;;;4953070;28;19930;-86
2023/07/06 00:12:10;;;;;;;;;;;11.80;99.90;;;;;;4952643;28;19984;-87
2023/07/06 00:14:38;;;;;;;;;;;11.70;99.90;;;;;;4953327;28;19933;-87
2023/07/06 00:17:08;;;;;;;;;;;12.20;99.90;;;;;;4952697;28;19980;-86
2023/07/06 00:19:34;;;;;;;;;;;11.80;99.90;;;;;;4953352;28;20382;-87
2023/07/06 00:22:00;;;;;;;;;;;11.70;99.90;;;;;;4968863;28;20378;-87
2023/07/06 00:24:42;;;;;;;;;;;11.70;99.90;;;;;;4952443;28;19926;-87
2023/07/06 00:27:08;;;;;;;;;;;11.70;99.90;;;;;;4952732;28;19952;-86
2023/07/06 00:29:35;;;;;;;;;;;11.60;99.90;;;;;;4953291;28;20445;-86
2023/07/06 00:32:26;;;;;;;;;;;11.60;99.90;;;;;;4951329;28;20024;-87
2023/07/06 00:34:55;;;;;;;;;;;11.60;99.90;;;;;;4953248;28;19926;-86
2023/07/06 00:37:21;;;;;;;;;;;11.60;99.90;;;;;;4953047;28;19988;-86
2023/07/06 00:39:50;;;;;;;;;;;11.50;99.90;;;;;;4952268;28;20016;-87
2023/07/06 00:42:17;;;;;;;;;;;11.80;99.90;;;;;;4952043;28;20401;-87
2023/07/06 00:44:52;;;;;;;;;;;11.50;99.90;;;;;;4955622;28;19979;-87
2023/07/06 00:50:21;;;;;;;;;;;11.50;99.90;;;;;;4971931;28;19930;-86
2023/07/06 00:52:52;;;;;;;;;;;11.50;99.90;;;;;;4983390;28;20416;-87
2023/07/06 00:55:19;;;;;;;;;;;11.50;99.90;;;;;;4955763;28;19937;-87
2023/07/06 00:57:47;;;;;;;;;;;11.50;99.90;;;;;;4971890;28;19925;-86
2023/07/06 01:00:18;;;;;;;;;;;11.50;99.90;;;;;;4955731;28;20001;-87
2023/07/06 01:02:52;;;;;;;;;;;11.50;99.90;;;;;;4951920;28;19929;-87
2023/07/06 01:05:19;;;;;;;;;;;11.20;99.90;;;;;;4955428;28;20033;-87
2023/07/06 01:07:46;;;;;;;;;;;11.40;99.90;;;;;;4955224;28;19926;-87
2023/07/06 01:10:20;;;;;;;;;;;11.50;99.90;;;;;;4955886;28;19937;-87
2023/07/06 01:12:46;;;;;;;;;;;11.40;99.90;;;;;;4971640;28;19926;-86
2023/07/06 01:15:15;;;;;;;;;;;11.40;99.90;;;;;;4955279;28;19929;-86
2023/07/06 01:17:41;;;;;;;;;;;11.40;99.90;;;;;;4955586;28;20002;-87
2023/07/06 01:20:15;;;;;;;;;;;11.40;99.90;;;;;;4954765;28;19984;-87
2023/07/06 01:22:49;;;;;;;;;;;11.40;99.90;;;;;;4971353;28;20009;-86
2023/07/06 01:25:26;;;;;;;;;;;11.40;99.90;;;;;;4971784;28;19932;-87
2023/07/06 01:28:10;;;;;;;;;;;11.40;99.90;;;;;;4970065;28;19953;-86
2023/07/06 01:30:36;;;;;;;;;;;11.40;99.90;;;;;;4954430;28;19961;-86
2023/07/06 01:33:04;;;;;;;;;;;11.40;99.90;;;;;;4955839;28;19937;-87
2023/07/06 01:35:32;;;;;;;;;;;11.40;99.90;;;;;;4970289;28;20013;-87
2023/07/06 01:38:00;;;;;;;;;;;11.40;99.90;;;;;;4971812;28;20024;-86
2023/07/06 01:40:25;;;;;;;;;;;11.40;99.90;;;;;;4970921;28;19972;-86
2023/07/06 01:42:51;;;;;;;;;;;11.40;99.90;;;;;;4954775;28;19973;-87
2023/07/06 01:45:18;;;;;;;;;;;11.40;99.90;;;;;;4955065;28;19925;-87
2023/07/06 01:47:45;;;;;;;;;;;11.50;99.90;;;;;;4954892;28;19943;-86
2023/07/06 01:50:15;;;;;;;;;;;11.50;99.90;;;;;;4970951;28;19930;-87
2023/07/06 01:53:04;;;;;;;;;;;11.50;99.90;;;;;;4958067;28;19926;-87
2023/07/06 01:55:32;;;;;;;;;;;11.50;99.90;;;;;;4957425;28;19929;-87
2023/07/06 01:58:07;;;;;;;;;;;11.60;99.90;;;;;;4958288;28;19930;-86
2023/07/06 02:00:35;;;;;;;;;;;11.60;99.90;;;;;;4958128;28;19929;-87
2023/07/06 02:03:01;;;;;;;;;;;11.60;99.90;;;;;;4948897;28;20317;-87
2023/07/06 02:05:27;;;;;;;;;;;11.60;99.90;;;;;;4958030;28;20275;-87
2023/07/06 02:07:52;;;;;;;;;;;11.70;99.90;;;;;;4957842;28;19933;-86
2023/07/06 02:10:22;;;;;;;;;;;11.70;99.90;;;;;;4957775;28;19972;-87
2023/07/06 02:12:48;;;;;;;;;;;11.80;99.90;;;;;;4958773;28;19930;-86
2023/07/06 02:15:16;;;;;;;;;;;11.80;99.90;;;;;;4957829;28;19968;-86
2023/07/06 02:17:43;;;;;;;;;;;11.80;99.90;;;;;;4957287;28;19926;-87
2023/07/06 02:20:08;;;;;;;;;;;11.90;99.90;;;;;;4958206;28;20024;-86
2023/07/06 02:22:34;;;;;;;;;;;11.90;99.90;;;;;;4974374;28;20345;-86
2023/07/06 02:25:01;;;;;;;;;;;11.90;99.90;;;;;;4956754;28;19992;-86
2023/07/06 02:27:26;;;;;;;;;;;11.90;99.90;;;;;;4957403;28;20332;-86
2023/07/06 02:29:52;;;;;;;;;;;12.00;99.90;;;;;;4958333;28;20409;-86
2023/07/06 02:32:18;;;;;;;;;;;11.90;99.90;;;;;;4956560;28;19929;-87
2023/07/06 02:34:46;;;;;;;;;;;11.90;99.90;;;;;;4958071;28;20374;-87
2023/07/06 02:37:12;;;;;;;;;;;12.00;99.90;;;;;;4957607;28;19976;-86
2023/07/06 02:39:38;;;;;;;;;;;12.00;99.90;;;;;;4956888;28;20027;-87
2023/07/06 02:42:04;;;;;;;;;;;12.00;99.90;;;;;;4957436;28;19977;-86
2023/07/06 02:44:58;;;;;;;;;;;12.00;99.90;;;;;;4956461;28;20433;-87
2023/07/06 02:47:25;;;;;;;;;;;12.10;99.90;;;;;;4957311;28;19925;-87
2023/07/06 02:49:50;;;;;;;;;;;12.00;99.90;;;;;;4957216;28;19930;-87
2023/07/06 02:52:16;;;;;;;;;;;12.10;99.90;;;;;;4973361;28;20028;-87
2023/07/06 02:54:42;;;;;;;;;;;12.10;99.90;;;;;;4957453;28;20024;-86
2023/07/06 02:57:07;;;;;;;;;;;12.10;99.90;;;;;;4957214;28;20376;-87
2023/07/06 02:59:33;;;;;;;;;;;12.10;99.90;;;;;;4973060;28;19926;-86
2023/07/06 03:01:58;;;;;;;;;;;12.10;99.90;;;;;;4971326;28;19980;-86
2023/07/06 03:04:28;;;;;;;;;;;12.10;99.90;;;;;;4955571;28;19933;-85
2023/07/06 03:06:55;;;;;;;;;;;12.10;99.90;;;;;;4972475;28;20385;-86
2023/07/06 03:09:22;;;;;;;;;;;12.00;99.90;;;;;;4974619;28;19929;-86
2023/07/06 03:11:49;;;;;;;;;;;12.10;99.90;;;;;;4957347;28;19937;-86
2023/07/06 03:14:15;;;;;;;;;;;12.00;99.90;;;;;;4957868;28;19945;-86
2023/07/06 03:16:41;;;;;;;;;;;12.00;99.90;;;;;;4985812;28;20053;-86
2023/07/06 03:19:08;;;;;;;;;;;12.00;99.90;;;;;;4957231;28;19934;-87
2023/07/06 03:21:34;;;;;;;;;;;12.00;99.90;;;;;;4956120;28;19953;-87
2023/07/06 03:24:00;;;;;;;;;;;11.90;99.90;;;;;;4957267;28;19926;-86
2023/07/06 03:26:25;;;;;;;;;;;11.90;99.90;;;;;;4956601;28;19933;-86
2023/07/06 03:28:56;;;;;;;;;;;11.90;99.90;;;;;;4955648;28;20007;-86
2023/07/06 03:31:22;;;;;;;;;;;11.80;99.90;;;;;;4956828;28;19937;-86
2023/07/06 03:33:48;;;;;;;;;;;11.90;99.90;;;;;;4957715;28;20014;-86
2023/07/06 03:36:14;;;;;;;;;;;11.80;99.90;;;;;;4956734;28;20424;-86
2023/07/06 03:38:39;;;;;;;;;;;11.70;99.90;;;;;;4957153;28;20443;-85
2023/07/06 03:41:05;;;;;;;;;;;11.70;99.90;;;;;;4956527;28;19925;-86
2023/07/06 03:43:31;;;;;;;;;;;11.70;99.90;;;;;;4957149;28;19926;-87
2023/07/06 03:45:57;;;;;;;;;;;11.70;99.90;;;;;;4956525;28;19965;-86
2023/07/06 03:48:23;;;;;;;;;;;11.70;99.90;;;;;;4971367;28;19988;-85
2023/07/06 03:50:52;;;;;;;;;;;11.70;99.90;;;;;;4956864;28;19926;-86
2023/07/06 03:53:19;;;;;;;;;;;11.70;99.90;;;;;;4971388;28;20025;-86
2023/07/06 03:55:44;;;;;;;;;;;11.80;99.90;;;;;;4956344;28;19934;-86
2023/07/06 03:58:10;;;;;;;;;;;11.80;99.90;;;;;;4956048;28;20329;-86
2023/07/06 04:00:36;;;;;;;;;;;11.90;99.90;;;;;;4954610;28;19957;-85
2023/07/06 04:03:04;;;;;;;;;;;11.90;99.90;;;;;;4954743;28;19926;-86
2023/07/06 04:05:32;;;;;;;;;;;12.00;99.90;;;;;;4970587;28;19925;-86
2023/07/06 04:07:59;;;;;;;;;;;11.80;99.90;;;;;;4955641;28;20402;-86
2023/07/06 04:10:28;;;;;;;;;;;12.10;99.90;;;;;;4954600;28;20262;-85
2023/07/06 04:12:54;;;;;;;;;;;12.20;99.90;;;;;;4956463;28;19930;-86
2023/07/06 04:15:19;;;;;;;;;;;12.20;99.90;;;;;;4954114;28;20040;-86
2023/07/06 04:17:47;;;;;;;;;;;12.30;99.90;;;;;;4971328;28;19926;-85
2023/07/06 04:20:18;;;;;;;;;;;12.40;99.90;;;;;;4956269;28;19936;-86
2023/07/06 04:22:45;;;;;;;;;;;12.50;99.90;;;;;;4956054;28;19930;-86
2023/07/06 04:25:11;;;;;;;;;;;12.60;99.90;;;;;;4955230;28;19933;-86
2023/07/06 04:27:36;;;;;;;;;;;12.60;99.90;;;;;;4971017;28;19925;-86
2023/07/06 04:30:10;;;;;;;;;;;12.70;99.90;;;;;;4954535;28;19925;-86
2023/07/06 04:32:36;;;;;;;;;;;12.70;99.90;;;;;;4955585;28;19925;-86
2023/07/06 04:35:03;;;;;;;;;;;12.80;99.90;;;;;;4955043;28;20396;-86
2023/07/06 04:37:29;;;;;;;;;;;12.90;99.90;;;;;;4969775;28;19933;-86
2023/07/06 04:39:55;;;;;;;;;;;12.90;99.90;;;;;;4953992;28;19930;-85
2023/07/06 04:42:20;;;;;;;;;;;13.00;99.90;;;;;;4954118;28;20336;-86
2023/07/06 04:44:47;;;;;;;;;;;13.10;99.90;;;;;;4953965;28;19944;-86
2023/07/06 04:47:15;;;;;;;;;;;13.10;99.90;;;;;;4954728;28;19965;-87
2023/07/06 04:49:41;;;;;;;;;;;13.10;99.90;;;;;;4970932;28;19933;-86
2023/07/06 04:52:07;;;;;;;;;;;13.30;99.90;;;;;;4969923;28;19925;-86
2023/07/06 04:54:33;;;;;;;;;;;13.20;99.90;;;;;;4949588;28;19926;-87
2023/07/06 04:56:59;;;;;;;;;;;13.30;99.90;;;;;;4951337;28;19965;-87
2023/07/06 04:59:25;;;;;;;;;;;13.30;99.90;;;;;;4954259;28;19976;-86
2023/07/06 05:01:51;;;;;;;;;;;13.20;99.90;;;;;;4954876;28;20263;-86
2023/07/06 05:04:17;;;;;;;;;;;13.20;99.90;;;;;;4969807;28;19926;-87
2023/07/06 05:06:43;;;;;;;;;;;13.10;99.90;;;;;;4953882;28;19922;-87
2023/07/06 05:09:12;;;;;;;;;;;13.10;99.90;;;;;;4955463;28;19999;-87
2023/07/06 05:11:38;;;;;;;;;;;13.10;99.90;;;;;;4954023;28;20050;-87
2023/07/06 05:14:04;;;;;;;;;;;13.10;99.90;;;;;;4955116;28;19925;-87
2023/07/06 05:16:33;;;;;;;;;;;13.20;99.90;;;;;;4955074;28;19926;-87
2023/07/06 05:18:58;;;;;;;;;;;13.30;99.90;;;;;;4954668;28;19933;-86
2023/07/06 05:21:24;;;;;;;;;;;13.40;99.90;;;;;;4953046;28;19930;-86
2023/07/06 05:23:50;;;;;;;;;;;13.50;99.90;;;;;;4955200;28;19926;-86
2023/07/06 05:26:17;;;;;;;;;;;13.70;99.90;;;;;;4955685;28;19934;-85
2023/07/06 05:28:42;;;;;;;;;;;13.70;99.90;;;;;;4955713;28;19936;-87
2023/07/06 05:31:08;;;;;;;;;;;13.70;99.90;;;;;;4973491;28;20040;-86
2023/07/06 05:33:34;;;;;;;;;;;13.80;99.90;;;;;;4957871;28;19933;-87
2023/07/06 05:36:00;;;;;;;;;;;13.80;99.90;;;;;;4957179;28;20074;-89
2023/07/06 05:38:28;;;;;;;;;;;13.80;99.90;;;;;;4960259;28;19937;-89
2023/07/06 05:41:09;;;;;;;;;;;13.90;99.90;;;;;;4958262;28;19926;-88
2023/07/06 05:43:34;;;;;;;;;;;14.00;99.90;;;;;;4974192;28;19936;-87
2023/07/06 05:46:03;;;;;;;;;;;13.90;99.90;;;;;;4955314;28;19930;-87
2023/07/06 05:48:29;;;;;;;;;;;14.20;99.90;;;;;;4954917;28;20021;-87
2023/07/06 05:50:54;;;;;;;;;;;14.30;99.90;;;;;;4955540;28;20052;-87
2023/07/06 05:53:20;;;;;;;;;;;14.40;99.90;;;;;;4972040;28;20025;-87
2023/07/06 05:55:46;;;;;;;;;;;14.50;99.90;;;;;;4954218;28;20909;-88
2023/07/06 05:58:13;;;;;;;;;;;14.60;99.90;;;;;;4955952;28;19923;-87
2023/07/06 06:00:39;;;;;;;;;;;14.70;99.90;;;;;;4954502;28;19930;-88
2023/07/06 06:03:06;;;;;;;;;;;14.80;99.90;;;;;;4971280;28;20114;-88
2023/07/06 06:05:33;;;;;;;;;;;15.00;99.90;;;;;;4943136;28;20398;-87
2023/07/06 06:08:00;;;;;;;;;;;15.00;99.90;;;;;;4955330;28;20393;-87
2023/07/06 06:10:26;;;;;;;;;;;15.10;99.90;;;;;;4954103;28;19930;-88
2023/07/06 06:12:52;;;;;;;;;;;15.20;99.90;;;;;;4955428;28;19934;-88
2023/07/06 06:15:17;;;;;;;;;;;15.40;99.90;;;;;;4954822;28;19930;-87
2023/07/06 06:17:44;;;;;;;;;;;15.50;99.90;;;;;;4954099;28;19977;-88
2023/07/06 06:20:10;;;;;;;;;;;15.10;99.90;;;;;;4955387;28;20374;-88
2023/07/06 06:22:37;;;;;;;;;;;15.60;99.90;;;;;;4954602;28;19930;-87
2023/07/06 06:25:03;;;;;;;;;;;15.70;99.90;;;;;;4954830;28;20013;-88
2023/07/06 06:27:29;;;;;;;;;;;15.80;99.90;;;;;;4955014;28;20024;-88
2023/07/06 06:29:55;;;;;;;;;;;15.90;99.90;;;;;;4954344;28;20430;-87
2023/07/06 06:32:22;;;;;;;;;;;16.00;99.90;;;;;;4970975;28;20032;-88
2023/07/06 06:34:59;;;;;;;;;;;16.10;99.90;;;;;;4955459;28;19926;-87
2023/07/06 06:37:27;;;;;;;;;;;16.20;99.90;;;;;;4953537;28;19977;-88
2023/07/06 06:39:53;;;;;;;;;;;16.20;99.90;;;;;;4955113;28;19977;-88
2023/07/06 06:42:19;;;;;;;;;;;16.30;99.90;;;;;;4954505;28;19926;-88
2023/07/06 06:44:45;;;;;;;;;;;16.00;99.90;;;;;;4953674;28;19936;-88
2023/07/06 06:47:10;;;;;;;;;;;16.50;99.90;;;;;;4954630;28;19930;-88
2023/07/06 06:49:36;;;;;;;;;;;16.20;99.90;;;;;;4954711;28;19933;-88
2023/07/06 06:52:03;;;;;;;;;;;16.80;99.90;;;;;;4953749;28;19926;-88
2023/07/06 06:54:30;;;;;;;;;;;16.90;99.90;;;;;;4954326;28;19987;-88
2023/07/06 06:56:56;;;;;;;;;;;17.00;99.90;;;;;;4967918;28;19926;-87
2023/07/06 06:59:22;;;;;;;;;;;17.10;99.90;;;;;;4953705;28;19937;-87
2023/07/06 07:01:50;;;;;;;;;;;17.20;99.90;;;;;;4947427;28;19931;-88
2023/07/06 07:04:20;;;;;;;;;;;17.30;99.90;;;;;;4970858;28;20258;-88
2023/07/06 07:06:45;;;;;;;;;;;17.40;99.90;;;;;;4953716;28;19953;-87
2023/07/06 07:09:13;;;;;;;;;;;17.50;99.90;;;;;;4949772;28;20271;-87
2023/07/06 07:11:38;;;;;;;;;;;17.50;99.90;;;;;;4944168;28;19930;-87
2023/07/06 07:14:07;;;;;;;;;;;17.60;99.90;;;;;;4953948;28;19930;-87
2023/07/06 07:16:36;;;;;;;;;;;17.60;99.90;;;;;;4953479;28;19930;-87
2023/07/06 07:19:04;;;;;;;;;;;17.60;99.90;;;;;;4952989;28;20368;-88
2023/07/06 07:21:39;;;;;;;;;;;17.70;99.90;;;;;;4953681;28;19922;-88
2023/07/06 07:24:04;;;;;;;;;;;17.70;99.90;;;;;;4943688;28;20004;-88
2023/07/06 07:26:30;;;;;;;;;;;17.80;99.90;;;;;;4965474;28;20052;-87
2023/07/06 07:29:03;;;;;;;;;;;17.80;99.90;;;;;;4939157;28;20006;-87
2023/07/06 07:31:29;;;;;;;;;;;17.90;99.90;;;;;;4941999;28;19930;-88
2023/07/06 07:33:54;;;;;;;;;;;18.10;99.90;;;;;;4952187;28;19927;-87
2023/07/06 07:36:21;;;;;;;;;;;18.20;99.90;;;;;;4953000;28;19930;-87
2023/07/06 07:38:47;;;;;;;;;;;18.20;99.90;;;;;;4953506;28;19930;-90
2023/07/06 07:41:16;;;;;;;;;;;18.30;99.90;;;;;;4952599;28;19973;-86
2023/07/06 07:43:42;;;;;;;;;;;18.40;99.90;;;;;;4949794;28;20017;-87
2023/07/06 07:46:11;;;;;;;;;;;18.50;99.90;;;;;;4953553;28;20301;-89
2023/07/06 07:48:38;;;;;;;;;;;18.50;99.90;;;;;;4944455;28;20387;-87
2023/07/06 07:51:06;;;;;;;;;;;18.60;99.90;;;;;;4950822;28;20378;-87
2023/07/06 07:53:33;;;;;;;;;;;18.70;99.90;;;;;;4940752;28;19981;-87
2023/07/06 07:55:59;;;;;;;;;;;18.80;99.90;;;;;;4941777;28;19985;-86
2023/07/06 07:58:46;;;;;;;;;;;18.80;99.90;;;;;;4952274;28;19965;-87
2023/07/06 08:01:13;;;;;;;;;;;18.90;99.90;;;;;;4945198;28;19930;-87
2023/07/06 08:03:38;;;;;;;;;;;19.10;99.90;;;;;;4950001;28;19934;-87
2023/07/06 08:06:06;;;;;;;;;;;19.10;99.90;;;;;;4953428;28;19926;-87
2023/07/06 08:08:36;;;;;;;;;;;19.20;99.90;;;;;;4948279;28;20306;-87
2023/07/06 08:11:04;;;;;;;;;;;19.40;99.90;;;;;;4952085;28;19940;-87
2023/07/06 08:13:29;;;;;;;;;;;19.50;99.90;;;;;;4952784;28;19936;-87
2023/07/06 08:15:55;;;;;;;;;;;19.70;99.90;;;;;;4951920;28;19930;-87
2023/07/06 08:18:24;;;;;;;;;;;19.90;99.90;;;;;;4968652;28;20301;-87
2023/07/06 08:20:59;;;;;;;;;;;20.00;99.90;;;;;;4953173;28;19937;-86
2023/07/06 08:23:25;;;;;;;;;;;20.00;99.90;;;;;;4951928;28;19927;-87
2023/07/06 08:25:51;;;;;;;;;;;20.00;99.90;;;;;;4968005;28;19926;-87
2023/07/06 08:28:20;;;;;;;;;;;20.00;99.90;;;;;;4952965;28;19926;-87
2023/07/06 08:30:46;;;;;;;;;;;20.00;99.90;;;;;;4951432;28;20445;-87
2023/07/06 08:33:13;;;;;;;;;;;20.00;99.90;;;;;;4969006;28;19936;-87
2023/07/06 08:35:45;;;;;;;;;;;20.20;99.90;;;;;;4967517;28;19996;-86
2023/07/06 08:38:12;;;;;;;;;;;20.10;99.90;;;;;;4952220;28;19933;-87
2023/07/06 08:40:41;;;;;;;;;;;19.90;99.90;;;;;;4967461;28;19965;-86
2023/07/06 08:43:13;;;;;;;;;;;19.80;99.90;;;;;;4952224;28;19926;-86
2023/07/06 08:45:42;;;;;;;;;;;19.90;99.90;;;;;;4951215;28;20465;-87
2023/07/06 08:48:13;;;;;;;;;;;19.90;99.90;;;;;;4952006;28;20087;-86
2023/07/06 08:50:40;;;;;;;;;;;19.90;99.90;;;;;;4951054;28;19930;-87
2023/07/06 08:53:11;;;;;;;;;;;19.80;99.90;;;;;;4952152;28;19933;-86
2023/07/06 08:55:38;;;;;;;;;;;19.70;99.90;;;;;;4951781;28;20278;-86
2023/07/06 08:58:04;;;;;;;;;;;19.40;99.90;;;;;;4951395;28;19953;-87
2023/07/06 09:00:31;;;;;;;;;;;19.40;99.90;;;;;;4970044;28;19930;-87
2023/07/06 09:03:03;;;;;;;;;;;19.20;99.90;;;;;;4956576;28;19926;-87
2023/07/06 09:05:32;;;;;;;;;;;19.10;99.90;;;;;;4955022;28;19926;-87
2023/07/06 09:07:58;;;;;;;;;;;19.00;99.90;;;;;;4971793;28;19934;-87
2023/07/06 09:10:28;;;;;;;;;;;18.90;99.90;;;;;;4955100;28;19937;-86
2023/07/06 09:12:56;;;;;;;;;;;18.90;99.90;;;;;;4970925;28;19933;-86
2023/07/06 09:15:26;;;;;;;;;;;19.10;99.90;;;;;;4955140;28;19962;-86
2023/07/06 09:17:55;;;;;;;;;;;19.30;99.90;;;;;;4955589;28;19960;-86
2023/07/06 09:20:21;;;;;;;;;;;19.40;99.90;;;;;;4955134;28;19933;-86
2023/07/06 09:22:47;;;;;;;;;;;19.60;99.90;;;;;;4956154;28;19927;-87
2023/07/06 09:25:17;;;;;;;;;;;19.70;99.90;;;;;;4972132;28;20303;-87
2023/07/06 09:27:44;;;;;;;;;;;19.70;99.90;;;;;;4955228;28;19926;-87
2023/07/06 09:30:18;;;;;;;;;;;19.70;99.90;;;;;;4955450;28;19926;-87
2023/07/06 09:32:44;;;;;;;;;;;19.80;99.90;;;;;;4954083;28;20294;-86
2023/07/06 09:35:20;;;;;;;;;;;20.10;99.90;;;;;;4956556;28;19934;-87
2023/07/06 09:37:46;;;;;;;;;;;20.50;99.90;;;;;;4955354;28;20021;-86
2023/07/06 09:40:13;;;;;;;;;;;20.80;99.90;;;;;;4971178;28;19977;-87
2023/07/06 09:42:39;;;;;;;;;;;21.10;99.90;;;;;;4953825;28;19950;-86
2023/07/06 09:45:20;;;;;;;;;;;21.50;99.90;;;;;;4955410;28;19930;-87
2023/07/06 09:47:47;;;;;;;;;;;21.60;99.90;;;;;;4954563;28;20436;-87
2023/07/06 09:50:18;;;;;;;;;;;21.70;99.90;;;;;;4971230;28;19976;-87
2023/07/06 09:52:43;;;;;;;;;;;21.60;99.90;;;;;;4955287;28;20294;-87
2023/07/06 09:55:15;;;;;;;;;;;21.70;99.90;;;;;;4954674;28;19926;-86
2023/07/06 09:57:42;;;;;;;;;;;21.90;99.90;;;;;;4970047;28;19957;-86
2023/07/06 10:00:14;;;;;;;;;;;22.00;99.90;;;;;;4954733;28;19930;-86
2023/07/06 10:02:46;;;;;;;;;;;21.80;99.90;;;;;;4953566;28;19936;-86
2023/07/06 10:05:21;;;;;;;;;;;21.50;99.90;;;;;;4954895;28;19926;-87
2023/07/06 10:07:46;;;;;;;;;;;21.20;99.90;;;;;;4954146;28;19926;-87
2023/07/06 10:10:12;;;;;;;;;;;20.90;99.90;;;;;;4954826;28;19937;-86
2023/07/06 10:12:44;;;;;;;;;;;20.80;99.90;;;;;;4953803;28;20401;-87
2023/07/06 10:15:18;;;;;;;;;;;20.90;99.90;;;;;;4953670;28;20374;-86
2023/07/06 10:17:48;;;;;;;;;;;20.90;99.90;;;;;;4970751;28;19927;-86
2023/07/06 10:20:18;;;;;;;;;;;20.90;99.90;;;;;;4971551;28;19930;-86
2023/07/06 10:22:50;;;;;;;;;;;20.90;99.90;;;;;;4969341;28;20302;-87
2023/07/06 10:25:28;;;;;;;;;;;20.90;99.90;;;;;;4954807;28;19930;-87
2023/07/06 10:27:58;;;;;;;;;;;20.80;99.90;;;;;;4954630;28;20001;-86
2023/07/06 10:30:31;;;;;;;;;;;20.70;99.90;;;;;;4969192;28;19964;-86
2023/07/06 10:32:58;;;;;;;;;;;20.60;99.90;;;;;;4954890;28;20922;-86
2023/07/06 10:35:36;;;;;;;;;;;20.90;99.90;;;;;;4953701;28;20297;-86
2023/07/06 10:38:01;;;;;;;;;;;21.30;99.90;;;;;;4953296;28;19933;-87
2023/07/06 10:40:28;;;;;;;;;;;21.30;99.90;;;;;;4953781;28;19926;-86
2023/07/06 10:43:12;;;;;;;;;;;21.10;99.90;;;;;;4969247;28;20012;-87
2023/07/06 10:45:38;;;;;;;;;;;20.90;99.90;;;;;;4967022;28;19934;-86
2023/07/06 10:48:09;;;;;;;;;;;20.90;99.90;;;;;;4957513;28;20064;-86
2023/07/06 10:50:43;;;;;;;;;;;21.20;99.90;;;;;;4955751;28;19990;-86
2023/07/06 10:53:17;;;;;;;;;;;21.60;99.90;;;;;;4958201;28;19934;-86
2023/07/06 10:55:54;;;;;;;;;;;21.70;99.90;;;;;;4956348;28;19937;-86
2023/07/06 10:58:23;;;;;;;;;;;21.90;99.90;;;;;;4955737;28;19961;-87
2023/07/06 11:00:49;;;;;;;;;;;21.80;99.90;;;;;;4955895;28;19938;-86
2023/07/06 11:03:17;;;;;;;;;;;22.00;99.90;;;;;;4964068;28;20017;-86
2023/07/06 11:05:55;;;;;;;;;;;22.20;99.90;;;;;;4971513;28;19926;-86
2023/07/06 11:08:45;;;;;;;;;;;22.20;99.90;;;;;;4956753;28;19976;-86
2023/07/06 11:11:18;;;;;;;;;;;22.20;99.90;;;;;;4958311;28;19965;-86
2023/07/06 11:13:50;;;;;;;;;;;22.10;99.90;;;;;;4969612;28;19945;-87
2023/07/06 11:16:21;;;;;;;;;;;22.20;99.90;;;;;;4956425;28;19934;-86
2023/07/06 11:18:51;;;;;;;;;;;22.40;99.90;;;;;;4956272;28;20282;-86
2023/07/06 11:21:16;;;;;;;;;;;22.20;99.90;;;;;;4956237;28;20012;-86
2023/07/06 11:23:45;;;;;;;;;;;22.10;99.90;;;;;;4972122;28;20009;-87
2023/07/06 11:26:35;;;;;;;;;;;22.00;99.90;;;;;;4955258;28;19934;-87
2023/07/06 11:29:04;;;;;;;;;;;22.00;99.90;;;;;;4962819;28;20017;-87
2023/07/06 11:31:30;;;;;;;;;;;22.20;99.90;;;;;;4943846;28;19956;-87
2023/07/06 11:34:03;;;;;;;;;;;22.20;99.90;;;;;;4971777;28;20029;-86
2023/07/06 11:36:39;;;;;;;;;;;22.10;99.90;;;;;;4955600;28;20020;-86
2023/07/06 11:39:06;;;;;;;;;;;21.90;99.90;;;;;;4956049;28;20288;-86
2023/07/06 11:41:41;;;;;;;;;;;21.90;99.90;;;;;;4970985;28;20427;-86
2023/07/06 11:44:11;;;;;;;;;;;21.60;99.90;;;;;;4955970;28;20283;-86
2023/07/06 11:46:56;;;;;;;;;;;21.30;99.90;;;;;;4954398;28;19930;-86
2023/07/06 11:49:22;;;;;;;;;;;21.00;99.90;;;;;;4955691;28;20409;-86
2023/07/06 11:51:48;;;;;;;;;;;20.80;99.90;;;;;;4955928;28;19996;-86
2023/07/06 11:54:40;;;;;;;;;;;20.60;99.90;;;;;;4954989;28;19942;-86
2023/07/06 11:57:24;;;;;;;;;;;20.40;99.90;;;;;;4955557;28;19937;-86
2023/07/06 11:59:55;;;;;;;;;;;20.20;99.90;;;;;;4971987;28;19929;-86
2023/07/06 12:02:21;;;;;;;;;;;20.10;99.90;;;;;;4946005;28;20258;-86
2023/07/06 12:04:47;;;;;;;;;;;20.10;99.90;;;;;;4971792;28;20401;-86
2023/07/06 12:07:20;;;;;;;;;;;20.10;99.90;;;;;;4954458;28;19936;-86
2023/07/06 12:09:47;;;;;;;;;;;20.20;99.90;;;;;;4955610;28;19933;-86
2023/07/06 12:12:16;;;;;;;;;;;20.40;99.90;;;;;;4970808;28;19937;-86
2023/07/06 12:14:41;;;;;;;;;;;20.60;99.90;;;;;;4954471;28;19926;-86
2023/07/06 12:17:09;;;;;;;;;;;20.80;99.90;;;;;;4970842;28;20040;-86
2023/07/06 12:19:37;;;;;;;;;;;21.20;99.90;;;;;;4955498;28;19961;-86
2023/07/06 12:22:03;;;;;;;;;;;21.80;99.90;;;;;;4954323;28;20012;-86
2023/07/06 12:24:29;;;;;;;;;;;22.10;99.90;;;;;;4955676;28;20012;-86
2023/07/06 12:26:57;;;;;;;;;;;22.20;99.90;;;;;;4954557;28;20373;-86
2023/07/06 12:29:23;;;;;;;;;;;22.10;99.90;;;;;;4954512;28;19936;-85
2023/07/06 12:31:50;;;;;;;;;;;22.00;99.90;;;;;;4954413;28;20033;-85
2023/07/06 12:34:17;;;;;;;;;;;21.90;99.90;;;;;;4955099;28;19933;-86
2023/07/06 12:36:43;;;;;;;;;;;21.80;99.90;;;;;;4969614;28;19930;-86
2023/07/06 12:39:12;;;;;;;;;;;21.70;99.90;;;;;;4971258;28;20312;-86
2023/07/06 12:41:37;;;;;;;;;;;21.60;99.90;;;;;;4954012;28;19926;-86
2023/07/06 12:44:05;;;;;;;;;;;21.50;99.90;;;;;;4970209;28;19926;-86
2023/07/06 12:46:33;;;;;;;;;;;21.50;99.90;;;;;;4938937;28;19926;-86
2023/07/06 12:49:01;;;;;;;;;;;21.50;99.90;;;;;;4964472;28;20305;-85
2023/07/06 12:51:28;;;;;;;;;;;21.50;99.90;;;;;;4954081;28;20050;-86
2023/07/06 12:53:55;;;;;;;;;;;21.60;99.90;;;;;;4987237;28;20366;-86
2023/07/06 12:56:22;;;;;;;;;;;21.70;99.90;;;;;;4953544;28;19922;-85
2023/07/06 12:58:55;;;;;;;;;;;21.90;99.90;;;;;;4970698;28;19934;-85
2023/07/06 13:01:25;;;;;;;;;;;22.20;99.90;;;;;;4965769;28;20032;-86
2023/07/06 13:03:52;;;;;;;;;;;22.50;99.90;;;;;;4950009;28;19925;-85
2023/07/06 13:06:20;;;;;;;;;;;22.50;99.90;;;;;;4970848;28;19926;-85
2023/07/06 13:08:46;;;;;;;;;;;22.70;99.90;;;;;;4954692;28;19930;-86
2023/07/06 13:11:15;;;;;;;;;;;22.70;99.90;;;;;;4953823;28;19933;-85
2023/07/06 13:13:43;;;;;;;;;;;22.70;99.90;;;;;;4954485;28;19983;-85
2023/07/06 13:16:13;;;;;;;;;;;22.50;99.90;;;;;;4954089;28;19929;-86
2023/07/06 13:18:39;;;;;;;;;;;22.40;99.90;;;;;;4969740;28;19929;-85
2023/07/06 13:21:09;;;;;;;;;;;22.50;99.90;;;;;;4954664;28;20547;-85
2023/07/06 13:23:36;;;;;;;;;;;22.50;99.90;;;;;;4954561;28;19930;-85
2023/07/06 13:26:02;;;;;;;;;;;22.20;99.90;;;;;;4953464;28;19930;-85
2023/07/06 13:28:27;;;;;;;;;;;22.00;99.90;;;;;;4970490;28;20373;-85
2023/07/06 13:30:53;;;;;;;;;;;21.80;99.90;;;;;;4953794;28;20079;-86
2023/07/06 13:33:19;;;;;;;;;;;21.80;99.90;;;;;;4953830;28;20333;-85
2023/07/06 13:35:46;;;;;;;;;;;21.70;99.90;;;;;;4970456;28;19926;-85
2023/07/06 13:38:13;;;;;;;;;;;21.80;99.90;;;;;;4954397;28;19968;-85
2023/07/06 13:40:40;;;;;;;;;;;21.90;99.90;;;;;;4952938;28;20346;-85
2023/07/06 13:43:09;;;;;;;;;;;22.10;99.90;;;;;;4970163;28;20369;-84
2023/07/06 13:45:37;;;;;;;;;;;22.30;99.90;;;;;;4965754;28;19941;-85
2023/07/06 13:48:03;;;;;;;;;;;22.30;99.90;;;;;;4953611;28;20290;-85
2023/07/06 13:50:29;;;;;;;;;;;22.50;99.90;;;;;;4954289;28;19955;-86
2023/07/06 13:52:56;;;;;;;;;;;22.70;99.90;;;;;;4953644;28;19933;-85
2023/07/06 13:55:25;;;;;;;;;;;22.90;99.90;;;;;;4954201;28;20270;-85
2023/07/06 13:57:51;;;;;;;;;;;22.90;99.90;;;;;;4942030;28;20008;-85
2023/07/06 14:00:16;;;;;;;;;;;22.90;99.90;;;;;;4953383;28;20029;-85
2023/07/06 14:02:47;;;;;;;;;;;23.00;99.90;;;;;;4945767;28;20058;-85
2023/07/06 14:05:14;;;;;;;;;;;23.00;99.90;;;;;;4953958;28;20398;-86
2023/07/06 14:07:40;;;;;;;;;;;23.00;99.90;;;;;;4953317;28;20147;-85
2023/07/06 14:10:06;;;;;;;;;;;23.10;99.90;;;;;;4953331;28;19937;-85
2023/07/06 14:12:32;;;;;;;;;;;23.30;99.90;;;;;;4953483;28;19933;-85
2023/07/06 14:14:58;;;;;;;;;;;23.30;99.90;;;;;;4953380;28;19929;-85
2023/07/06 14:17:23;;;;;;;;;;;23.10;99.90;;;;;;4953396;28;19936;-85
2023/07/06 14:19:50;;;;;;;;;;;23.10;99.90;;;;;;4953404;28;19930;-85
2023/07/06 14:22:16;;;;;;;;;;;23.00;99.90;;;;;;4953667;28;20008;-85
2023/07/06 14:24:42;;;;;;;;;;;23.00;99.90;;;;;;4954149;28;20366;-85
2023/07/06 14:27:09;;;;;;;;;;;23.00;99.90;;;;;;4953209;28;20374;-85